Portada
METAR-TAF:

METAR-TAF

Aeropuertos :

Forest City, Iowa, Estados Unidos

latitud: 43-14-05N, longitud: 093-37-27W, altitud: 375 m

Observación

El informe se hizo hace 10 minutos, a las 01:15 UTC
Viento 8 kt del norte-noroeste con ráfagas de 14 kt
Temperatura 21°C
Humedad 25%
Presión 1015 hPa
Visibilidad: 16.1 km
Cielo despejado

METAR: KFXY 290115Z AUTO 33008G14KT 10SM CLR 21/00 A2998 RMK AO2

Hora: 20:25 (01:25 UTC)


TAF: falta

Observaciones y pronósticos meteorológicos de más de 4000 aeropuertos (mensajes METAR y TAF).

Los puntos amarillos y rojos representan las estaciones disponibles.

Ponga el ratón en el punto deseado para ver el nombre de la estación.

Haga clic para ver las observaciones y los pronósticos meteorológicos.

Para cambiar el mapa : haga clic en los botones verdes con una cruz de color negro para hacer un zoom, en el botón verde con un guión para alejar o en las flechas verdes para mapas adyacentes.


METAR-TAF: